Segredos Do Mar — CUEA4 — position and weather

sailwx.info

Track history (hours):
 
Tides and Currents Weather Stations Pressure Air Temp Water Temp Dewpoint Dewpoint Depression Visibility Wind Speed Wind Dir Waves Ship Positions

Segredos Do Mar

Last reported at 2017-Dec-04 10:30 UTC. Time now 2017-Dec-12 17:39 UTC.
Position N 38°27' W 008°58'.
Warning: this ship's position is 8 days out of date.

Length 22 m.

MMSI: 263500212.

Date/timePositionNaut miles runAvg speedWind from/ knotsBaromVisibWave heightAir tempDewpointWater temp
2017-Dec-04 10:30N 38°27' W 008°58'4 4.6
2017-Dec-04 09:39N 38°25' W 008°54'0 0.1
2017-Dec-04 09:30N 38°25' W 008°54'0 0.1
2017-Dec-04 09:00N 38°25' W 008°54'0 0.0
2017-Dec-04 08:30N 38°25' W 008°54'0 0.2
2017-Dec-04 07:59N 38°25' W 008°54'0 0.8
2017-Dec-04 07:30N 38°25' W 008°54'3 6.1
2017-Dec-04 07:00N 38°22' W 008°51'3 6.5
2017-Dec-04 06:30N 38°19' W 008°50'0 0.1
2017-Dec-04 03:15N 38°19' W 008°49'0 0.2
2017-Dec-04 02:55N 38°19' W 008°49'0 0.4
2017-Dec-04 02:30N 38°19' W 008°49'0 0.1
2017-Dec-04 01:59N 38°19' W 008°49'0 0.1
2017-Dec-04 01:30N 38°19' W 008°49'0 0.1
2017-Dec-04 01:00N 38°19' W 008°49'6 4.6
2017-Dec-03 23:43N 38°24' W 008°53'1 6.9
2017-Dec-03 23:30N 38°25' W 008°54'3 5.7
2017-Dec-03 23:00N 38°27' W 008°57'3 5.8
2017-Dec-03 22:30N 38°29' W 008°55'  
2017-Nov-30 09:06N 38°29' W 008°56'1 9.1
2017-Nov-30 09:00N 38°28' W 008°56'3 6.3
2017-Nov-30 08:29N 38°26' W 008°54'1 0.7
2017-Nov-30 07:12N 38°25' W 008°53'1 0.2
2017-Nov-30 02:39N 38°26' W 008°52'7 2.0
2017-Nov-29 23:17N 38°19' W 008°49'7 4.6
2017-Nov-29 21:46N 38°26' W 008°53'2 4.9
2017-Nov-29 21:25N 38°26' W 008°55'3 6.3
2017-Nov-29 21:00N 38°27' W 008°58'4 0.1
2017-Nov-28 11:20N 38°31' W 008°54'3 7.3
2017-Nov-28 10:59N 38°29' W 008°57'2 4.9
2017-Nov-28 10:30N 38°26' W 008°57'4 2.5
2017-Nov-28 08:46N 38°25' W 008°51'0 0.1
2017-Nov-28 08:30N 38°25' W 008°51'3 0.3
2017-Nov-28 00:12N 38°25' W 008°55'3 1.2
2017-Nov-27 21:37N 38°27' W 008°58'1 5.5
2017-Nov-27 21:30N 38°27' W 008°58'5 5.4
2017-Nov-27 20:35N 38°31' W 008°54'0 0.0
2017-Nov-27 20:28N 38°31' W 008°54'0 0.0
2017-Nov-27 19:55N 38°31' W 008°54'3 0.3
2017-Nov-27 10:09N 38°29' W 008°56'1 6.6
2017-Nov-27 09:58N 38°28' W 008°57'3 5.6
2017-Nov-27 09:26N 38°25' W 008°55'4 6.9
2017-Nov-27 08:53N 38°23' W 008°52'3 7.0
2017-Nov-27 08:30N 38°20' W 008°50'1 1.5
2017-Nov-27 07:48N 38°19' W 008°49'0 0.2
2017-Nov-27 07:28N 38°19' W 008°49'0 0.1
2017-Nov-27 07:00N 38°19' W 008°49'1 1.8
2017-Nov-27 06:30N 38°19' W 008°50'1 1.8
2017-Nov-27 06:00N 38°19' W 008°49'2 3.9
2017-Nov-27 05:30N 38°18' W 008°49'1 2.1
2017-Nov-27 04:58N 38°16' W 008°48'0 0.1
2017-Nov-27 04:30N 38°17' W 008°48'0 0.1
2017-Nov-27 04:01N 38°16' W 008°48'0 0.1
2017-Nov-27 03:31N 38°16' W 008°48'3 1.0
2017-Nov-27 00:47N 38°19' W 008°50'2 4.5
2017-Nov-27 00:20N 38°21' W 008°50'4 7.3
2017-Nov-26 23:48N 38°24' W 008°54'2 7.5
2017-Nov-26 23:30N 38°25' W 008°56'3 6.2
2017-Nov-26 23:01N 38°28' W 008°57'  
Track history (hours):
 
Tides and Currents Weather Stations Pressure Air Temp Water Temp Dewpoint Dewpoint Depression Visibility Wind Speed Wind Dir Waves Ship Positions

Segredos Do Mar

Last reported at 2017-Dec-04 10:30 UTC. Time now 2017-Dec-12 17:39 UTC.
Position N 38°27' W 008°58'.
Warning: this ship's position is 8 days out of date.

Length 22 m.

MMSI: 263500212.

Date/timePositionNaut miles runAvg speedWind from/ knotsBaromVisibWave heightAir tempDewpointWater temp
2017-Dec-04 10:30N 38°27' W 008°58'4 4.6
2017-Dec-04 09:39N 38°25' W 008°54'0 0.1
2017-Dec-04 09:30N 38°25' W 008°54'0 0.1
2017-Dec-04 09:00N 38°25' W 008°54'0 0.0
2017-Dec-04 08:30N 38°25' W 008°54'0 0.2
2017-Dec-04 07:59N 38°25' W 008°54'0 0.8
2017-Dec-04 07:30N 38°25' W 008°54'3 6.1
2017-Dec-04 07:00N 38°22' W 008°51'3 6.5
2017-Dec-04 06:30N 38°19' W 008°50'0 0.1
2017-Dec-04 03:15N 38°19' W 008°49'0 0.2
2017-Dec-04 02:55N 38°19' W 008°49'0 0.4
2017-Dec-04 02:30N 38°19' W 008°49'0 0.1
2017-Dec-04 01:59N 38°19' W 008°49'0 0.1
2017-Dec-04 01:30N 38°19' W 008°49'0 0.1
2017-Dec-04 01:00N 38°19' W 008°49'6 4.6
2017-Dec-03 23:43N 38°24' W 008°53'1 6.9
2017-Dec-03 23:30N 38°25' W 008°54'3 5.7
2017-Dec-03 23:00N 38°27' W 008°57'3 5.8
2017-Dec-03 22:30N 38°29' W 008°55'  
2017-Nov-30 09:06N 38°29' W 008°56'1 9.1
2017-Nov-30 09:00N 38°28' W 008°56'3 6.3
2017-Nov-30 08:29N 38°26' W 008°54'1 0.7
2017-Nov-30 07:12N 38°25' W 008°53'1 0.2
2017-Nov-30 02:39N 38°26' W 008°52'7 2.0
2017-Nov-29 23:17N 38°19' W 008°49'7 4.6
2017-Nov-29 21:46N 38°26' W 008°53'2 4.9
2017-Nov-29 21:25N 38°26' W 008°55'3 6.3
2017-Nov-29 21:00N 38°27' W 008°58'4 0.1
2017-Nov-28 11:20N 38°31' W 008°54'3 7.3
2017-Nov-28 10:59N 38°29' W 008°57'2 4.9
2017-Nov-28 10:30N 38°26' W 008°57'4 2.5
2017-Nov-28 08:46N 38°25' W 008°51'0 0.1
2017-Nov-28 08:30N 38°25' W 008°51'3 0.3
2017-Nov-28 00:12N 38°25' W 008°55'3 1.2
2017-Nov-27 21:37N 38°27' W 008°58'1 5.5
2017-Nov-27 21:30N 38°27' W 008°58'5 5.4
2017-Nov-27 20:35N 38°31' W 008°54'0 0.0
2017-Nov-27 20:28N 38°31' W 008°54'0 0.0
2017-Nov-27 19:55N 38°31' W 008°54'3 0.3
2017-Nov-27 10:09N 38°29' W 008°56'1 6.6
2017-Nov-27 09:58N 38°28' W 008°57'3 5.6
2017-Nov-27 09:26N 38°25' W 008°55'4 6.9
2017-Nov-27 08:53N 38°23' W 008°52'3 7.0
2017-Nov-27 08:30N 38°20' W 008°50'1 1.5
2017-Nov-27 07:48N 38°19' W 008°49'0 0.2
2017-Nov-27 07:28N 38°19' W 008°49'0 0.1
2017-Nov-27 07:00N 38°19' W 008°49'1 1.8
2017-Nov-27 06:30N 38°19' W 008°50'1 1.8
2017-Nov-27 06:00N 38°19' W 008°49'2 3.9
2017-Nov-27 05:30N 38°18' W 008°49'1 2.1
2017-Nov-27 04:58N 38°16' W 008°48'0 0.1
2017-Nov-27 04:30N 38°17' W 008°48'0 0.1
2017-Nov-27 04:01N 38°16' W 008°48'0 0.1
2017-Nov-27 03:31N 38°16' W 008°48'3 1.0
2017-Nov-27 00:47N 38°19' W 008°50'2 4.5
2017-Nov-27 00:20N 38°21' W 008°50'4 7.3
2017-Nov-26 23:48N 38°24' W 008°54'2 7.5
2017-Nov-26 23:30N 38°25' W 008°56'3 6.2
2017-Nov-26 23:01N 38°28' W 008°57'  

Dump ship's entire track history